createdAt,value
2022-11-21T00:01:21.186Z,24.40
2022-11-21T00:03:48.859Z,21.80
2022-11-21T00:06:17.805Z,23.20
2022-11-21T00:08:46.175Z,23.00
2022-11-21T00:11:14.152Z,23.63
2022-11-21T00:13:42.520Z,23.42
2022-11-21T00:16:12.229Z,23.30
2022-11-21T00:18:40.264Z,25.25
2022-11-21T00:21:09.184Z,23.13
2022-11-21T00:23:38.129Z,26.20
2022-11-21T00:26:07.054Z,26.60
2022-11-21T00:28:35.048Z,24.77
2022-11-21T00:31:02.858Z,24.95
2022-11-21T00:33:30.418Z,25.60
2022-11-21T00:35:58.047Z,26.00
2022-11-21T00:38:25.715Z,25.45
2022-11-21T00:40:54.553Z,25.90
2022-11-21T00:43:22.121Z,23.98
2022-11-21T00:45:49.640Z,23.85
2022-11-21T00:48:17.244Z,22.92
2022-11-21T00:50:44.778Z,26.67
2022-11-21T00:53:12.364Z,20.38
2022-11-21T00:55:39.873Z,23.55
2022-11-21T00:58:08.791Z,23.73
2022-11-21T01:00:36.412Z,20.60
2022-11-21T01:03:04.305Z,18.95
2022-11-21T01:05:32.945Z,25.15
2022-11-21T01:08:00.522Z,23.30
2022-11-21T01:10:28.071Z,19.73
2022-11-21T01:12:55.658Z,21.20
2022-11-21T01:15:24.631Z,22.02
2022-11-21T01:17:52.352Z,21.98
2022-11-21T01:20:19.937Z,20.77
2022-11-21T01:22:47.483Z,20.48
2022-11-21T01:25:15.130Z,19.60
2022-11-21T01:27:42.974Z,20.00
2022-11-21T01:30:11.870Z,20.00
2022-11-21T01:32:40.775Z,19.90
2022-11-21T01:35:09.318Z,21.35
2022-11-21T01:37:36.887Z,21.58
2022-11-21T01:40:05.076Z,23.77
2022-11-21T01:42:45.591Z,23.50
2022-11-21T01:45:46.477Z,19.63
2022-11-21T01:48:15.550Z,22.45
2022-11-21T01:50:43.493Z,24.00
2022-11-21T01:53:11.550Z,21.63
2022-11-21T01:55:39.230Z,24.90
2022-11-21T01:58:06.841Z,24.60
2022-11-21T02:00:38.532Z,24.50
2022-11-21T02:03:10.423Z,24.15
2022-11-21T02:05:40.808Z,23.38
2022-11-21T02:08:11.753Z,23.88
2022-11-21T02:10:43.406Z,23.05
2022-11-21T02:13:11.360Z,23.38
2022-11-21T02:15:39.129Z,25.30
2022-11-21T02:18:09.966Z,27.83
2022-11-21T02:20:40.938Z,25.95
2022-11-21T02:23:14.649Z,26.00
2022-11-21T02:25:44.324Z,25.23
2022-11-21T02:28:15.465Z,25.20
2022-11-21T02:30:44.557Z,22.55
2022-11-21T02:33:13.381Z,22.63
2022-11-21T02:35:41.473Z,23.08
2022-11-21T02:38:17.813Z,22.20
2022-11-21T02:40:52.418Z,22.67
2022-11-21T02:43:25.092Z,25.25
2022-11-21T02:45:52.761Z,24.55
2022-11-21T02:48:20.524Z,22.17
2022-11-21T02:50:48.649Z,21.20
2022-11-21T02:53:18.539Z,23.02
2022-11-21T02:55:47.654Z,19.65
2022-11-21T02:58:15.275Z,20.42
2022-11-21T03:00:43.583Z,19.92
2022-11-21T03:03:11.291Z,18.55
2022-11-21T03:05:40.298Z,20.85
2022-11-21T03:08:08.088Z,18.52
2022-11-21T03:10:35.739Z,18.38
2022-11-21T03:13:04.977Z,16.88
2022-11-21T03:15:34.901Z,17.13
2022-11-21T03:18:03.581Z,19.23
2022-11-21T03:20:31.664Z,20.48
2022-11-21T03:22:59.591Z,19.70
2022-11-21T03:25:27.432Z,16.08
2022-11-21T03:27:55.546Z,19.80
2022-11-21T03:30:26.294Z,23.55
2022-11-21T03:32:56.409Z,23.02
2022-11-21T03:35:24.297Z,23.25
2022-11-21T03:37:51.851Z,18.38
2022-11-21T03:40:19.506Z,21.08
2022-11-21T03:42:47.090Z,19.08
2022-11-21T03:45:14.728Z,22.00
2022-11-21T03:47:43.592Z,21.17
2022-11-21T03:50:15.131Z,23.02
2022-11-21T03:52:42.779Z,22.42
2022-11-21T03:55:10.667Z,20.70
2022-11-21T03:57:38.240Z,20.63
2022-11-21T04:00:06.526Z,20.42
2022-11-21T04:02:34.240Z,25.45
2022-11-21T04:05:03.324Z,19.73
2022-11-21T04:07:31.082Z,30.55
2022-11-21T04:09:58.772Z,22.65
2022-11-21T04:12:26.370Z,21.08
2022-11-21T04:14:53.952Z,22.00
2022-11-21T04:17:21.699Z,19.10
2022-11-21T04:19:49.312Z,20.20
2022-11-21T04:22:18.209Z,17.25
2022-11-21T04:24:45.795Z,23.50
2022-11-21T04:27:13.642Z,20.83
2022-11-21T04:29:41.286Z,20.98
2022-11-21T04:32:09.316Z,20.75
2022-11-21T04:34:38.075Z,20.00
2022-11-21T04:37:11.278Z,18.20
2022-11-21T04:39:40.710Z,26.48
2022-11-21T04:42:08.343Z,24.27
2022-11-21T04:44:35.999Z,20.60
2022-11-21T04:47:05.568Z,23.88
2022-11-21T04:49:33.481Z,18.02
2022-11-21T04:52:01.251Z,21.00
2022-11-21T04:54:29.128Z,20.27
2022-11-21T04:56:58.349Z,24.58
2022-11-21T04:59:25.927Z,20.10
2022-11-21T05:01:53.446Z,22.65
2022-11-21T05:04:21.049Z,23.02
2022-11-21T05:06:48.612Z,21.10
2022-11-21T05:09:16.168Z,23.27
2022-11-21T05:12:01.296Z,21.92
2022-11-21T05:14:30.381Z,25.40
2022-11-21T05:16:58.114Z,21.48
2022-11-21T05:19:25.892Z,20.75
2022-11-21T05:21:53.795Z,22.90
2022-11-21T05:24:21.354Z,19.55
2022-11-21T05:26:48.937Z,20.30
2022-11-21T05:29:16.518Z,21.50
2022-11-21T05:31:45.516Z,20.33
2022-11-21T05:34:13.272Z,25.08
2022-11-21T05:36:40.866Z,25.58
2022-11-21T05:39:08.426Z,21.55
2022-11-21T05:41:36.871Z,22.25
2022-11-21T05:44:03.581Z,23.80
2022-11-21T05:46:31.183Z,28.23
2022-11-21T05:49:00.060Z,19.65
2022-11-21T05:51:28.003Z,21.77
2022-11-21T05:53:55.657Z,19.80
2022-11-21T05:56:23.292Z,25.00
2022-11-21T05:58:50.969Z,23.27
2022-11-21T06:01:39.008Z,23.83
2022-11-21T06:04:07.140Z,23.73
2022-11-21T06:06:34.670Z,23.50
2022-11-21T06:09:02.481Z,24.88
2022-11-21T06:11:30.044Z,25.50
2022-11-21T06:13:57.741Z,21.42
2022-11-21T06:16:25.436Z,22.25
2022-11-21T06:18:58.131Z,22.95
2022-11-21T06:21:29.629Z,22.05
2022-11-21T06:23:58.931Z,22.65
2022-11-21T06:26:28.552Z,25.02
2022-11-21T06:28:56.635Z,20.20
2022-11-21T06:31:26.025Z,20.50
2022-11-21T06:33:54.771Z,22.80
2022-11-21T06:36:22.477Z,21.90
2022-11-21T06:38:51.415Z,20.52
2022-11-21T06:41:20.419Z,22.20
2022-11-21T06:43:48.309Z,25.30
2022-11-21T06:46:16.665Z,23.17
2022-11-21T06:48:44.891Z,23.83
2022-11-21T06:51:16.502Z,21.83
2022-11-21T06:53:44.340Z,18.67
2022-11-21T06:56:13.321Z,21.92
2022-11-21T06:58:40.915Z,19.05
2022-11-21T07:01:10.443Z,22.08
2022-11-21T07:03:38.299Z,19.48
2022-11-21T07:06:07.003Z,21.00
2022-11-21T07:08:36.204Z,19.48
2022-11-21T07:13:54.761Z,20.65
2022-11-21T07:16:22.328Z,20.85
2022-11-21T07:18:49.914Z,23.80
2022-11-21T07:21:17.651Z,23.20
2022-11-21T07:23:45.279Z,21.05
2022-11-21T07:26:13.200Z,24.33
2022-11-21T07:28:40.931Z,20.02
2022-11-21T07:31:13.897Z,21.63
2022-11-21T07:33:43.236Z,27.98
2022-11-21T07:36:11.364Z,22.08
2022-11-21T07:38:39.173Z,24.98
2022-11-21T07:41:06.908Z,19.85
2022-11-21T07:43:34.574Z,22.63
2022-11-21T07:46:02.168Z,21.25
2022-11-21T07:48:31.130Z,22.67
2022-11-21T07:50:58.639Z,19.63
2022-11-21T07:53:26.353Z,23.27
2022-11-21T07:55:53.987Z,21.92
2022-11-21T07:58:21.546Z,19.52
2022-11-21T08:00:49.208Z,21.20
2022-11-21T08:03:16.795Z,18.23
2022-11-21T08:05:46.037Z,18.27
2022-11-21T08:08:14.709Z,18.95
2022-11-21T08:10:44.025Z,16.83
2022-11-21T08:13:11.716Z,16.63
2022-11-21T08:15:39.422Z,20.73
2022-11-21T08:18:10.929Z,19.85
2022-11-21T08:20:38.868Z,17.23
2022-11-21T08:23:08.206Z,19.70
2022-11-21T08:25:38.312Z,18.52
2022-11-21T08:28:07.089Z,19.58
2022-11-21T08:30:35.439Z,21.60
2022-11-21T08:33:03.604Z,23.95
2022-11-21T08:35:31.439Z,18.60
2022-11-21T08:37:59.475Z,20.67
2022-11-21T08:40:30.554Z,18.05
2022-11-21T08:42:58.771Z,20.75
2022-11-21T08:45:26.773Z,16.27
2022-11-21T08:47:54.375Z,17.80
2022-11-21T08:50:22.858Z,15.85
2022-11-21T08:52:50.596Z,15.60
2022-11-21T08:55:18.327Z,14.85
2022-11-21T08:57:47.169Z,16.33
2022-11-21T09:00:15.816Z,18.48
2022-11-21T09:02:43.768Z,16.33
2022-11-21T09:05:11.464Z,15.65
2022-11-21T09:07:38.986Z,17.38
2022-11-21T09:10:08.368Z,13.05
2022-11-21T09:12:35.926Z,15.30
2022-11-21T09:15:23.270Z,17.02
2022-11-21T09:18:07.934Z,16.98
2022-11-21T09:20:41.135Z,14.30
2022-11-21T09:23:11.018Z,16.17
2022-11-21T09:25:38.694Z,15.23
2022-11-21T09:28:07.714Z,17.05
2022-11-21T09:30:37.155Z,16.45
2022-11-21T09:33:06.509Z,16.52
2022-11-21T09:35:34.199Z,17.00
2022-11-21T09:38:01.763Z,18.25
2022-11-21T09:40:31.307Z,19.30
2022-11-21T09:43:07.635Z,17.67
2022-11-21T09:45:42.834Z,19.05
2022-11-21T09:48:13.926Z,19.33
2022-11-21T09:50:48.218Z,19.08
2022-11-21T09:53:23.685Z,18.15
2022-11-21T09:55:53.845Z,18.95
2022-11-21T09:58:30.711Z,16.45
2022-11-21T10:00:59.775Z,18.17
2022-11-21T10:03:30.767Z,19.55
2022-11-21T10:06:02.199Z,19.08
2022-11-21T10:08:40.424Z,16.80
2022-11-21T10:11:19.986Z,17.48
2022-11-21T10:13:58.698Z,16.02
2022-11-21T10:16:42.286Z,19.55
2022-11-21T10:19:26.930Z,16.80
2022-11-21T10:22:14.513Z,16.70
2022-11-21T10:24:49.719Z,16.30
2022-11-21T10:27:22.347Z,16.88
2022-11-21T10:29:54.988Z,16.27
2022-11-21T10:32:28.106Z,16.73
2022-11-21T10:34:59.620Z,15.75
2022-11-21T10:37:36.104Z,16.38
2022-11-21T10:40:14.817Z,19.15
2022-11-21T10:42:49.813Z,17.10
2022-11-21T10:45:16.761Z,18.00
2022-11-21T10:47:47.155Z,17.73
2022-11-21T10:50:39.085Z,20.15
2022-11-21T10:53:34.427Z,15.52
2022-11-21T10:56:05.393Z,20.17
2022-11-21T10:58:41.477Z,19.35
2022-11-21T11:01:23.891Z,18.30
2022-11-21T11:04:27.832Z,19.30
2022-11-21T11:06:56.996Z,21.13
2022-11-21T11:09:28.190Z,17.80
2022-11-21T11:12:24.916Z,19.40
2022-11-21T11:14:53.968Z,18.65
2022-11-21T11:17:30.450Z,17.92
2022-11-21T11:20:07.111Z,19.40
2022-11-21T11:22:34.818Z,19.70
2022-11-21T11:25:05.171Z,19.63
2022-11-21T11:27:32.964Z,15.98
2022-11-21T11:30:07.637Z,18.40
2022-11-21T11:32:40.621Z,17.63
2022-11-21T11:35:22.978Z,15.10
2022-11-21T11:38:00.960Z,17.35
2022-11-21T11:40:32.751Z,15.43
2022-11-21T11:43:32.478Z,13.60
2022-11-21T11:46:47.592Z,19.35
2022-11-21T11:49:21.310Z,12.48
2022-11-21T11:51:54.421Z,10.20
2022-11-21T11:54:27.361Z,12.85
2022-11-21T11:56:55.099Z,13.63
2022-11-21T11:59:29.618Z,10.73
2022-11-21T12:02:04.423Z,10.70
2022-11-21T12:04:45.296Z,8.80
2022-11-21T12:10:17.483Z,11.25
2022-11-21T12:12:49.505Z,8.65
2022-11-21T12:15:38.643Z,12.48
2022-11-21T12:18:16.947Z,13.32
2022-11-21T12:20:55.494Z,10.30
2022-11-21T12:23:27.640Z,13.57
2022-11-21T12:26:05.996Z,9.68
2022-11-21T12:28:45.416Z,7.32
2022-11-21T12:31:18.740Z,8.73
2022-11-21T12:33:53.034Z,13.55
2022-11-21T12:36:32.943Z,10.68
2022-11-21T12:39:34.524Z,7.70
2022-11-21T12:42:28.591Z,6.75
2022-11-21T12:45:10.152Z,7.13
2022-11-21T12:48:20.292Z,8.38
2022-11-21T12:51:14.415Z,7.10
2022-11-21T12:54:07.755Z,7.53
2022-11-21T12:56:45.430Z,8.50
2022-11-21T12:59:16.065Z,7.50
2022-11-21T13:01:53.149Z,8.98
2022-11-21T13:04:26.222Z,6.20
2022-11-21T13:06:56.604Z,7.00
2022-11-21T13:09:27.466Z,5.47
2022-11-21T13:12:04.725Z,7.28
2022-11-21T13:14:41.786Z,5.78
2022-11-21T13:17:24.246Z,5.57
2022-11-21T13:19:57.260Z,8.07
2022-11-21T13:22:50.599Z,5.20
2022-11-21T13:25:47.392Z,5.57
2022-11-21T13:28:53.221Z,5.43
2022-11-21T13:31:32.637Z,6.50
2022-11-21T13:34:03.355Z,5.78
2022-11-21T13:36:42.947Z,5.65
2022-11-21T13:39:36.035Z,5.43
2022-11-21T13:42:29.336Z,6.45
2022-11-21T13:44:57.526Z,7.57
2022-11-21T13:47:56.660Z,6.57
2022-11-21T13:50:46.794Z,8.10
2022-11-21T13:53:30.506Z,10.52
2022-11-21T13:56:01.031Z,8.18
2022-11-21T13:58:45.178Z,7.43
2022-11-21T14:01:41.163Z,8.80
2022-11-21T14:04:49.032Z,8.98
2022-11-21T14:07:25.737Z,6.43
2022-11-21T14:09:55.086Z,7.88
2022-11-21T14:12:33.083Z,8.05
2022-11-21T14:15:23.902Z,9.15
2022-11-21T14:17:52.688Z,10.88
2022-11-21T14:20:24.305Z,10.43
2022-11-21T14:22:57.690Z,11.07
2022-11-21T14:25:32.888Z,10.73
2022-11-21T14:28:01.018Z,9.85
2022-11-21T14:30:31.384Z,12.75
2022-11-21T14:33:22.199Z,9.43
2022-11-21T14:35:53.172Z,8.35
2022-11-21T14:38:22.444Z,11.00
2022-11-21T14:40:50.523Z,8.68
2022-11-21T14:43:33.230Z,8.00
2022-11-21T14:46:01.072Z,8.07
2022-11-21T14:48:29.647Z,11.55
2022-11-21T14:51:01.800Z,10.38
2022-11-21T14:53:29.718Z,8.73
2022-11-21T14:56:01.423Z,8.38
2022-11-21T14:58:29.628Z,8.90
2022-11-21T15:01:04.861Z,10.07
2022-11-21T15:03:32.562Z,8.30
2022-11-21T15:06:06.211Z,9.57
2022-11-21T15:10:05.374Z,8.50
2022-11-21T15:11:25.900Z,8.73
2022-11-21T15:14:15.012Z,9.98
2022-11-21T15:16:43.943Z,9.85
2022-11-21T15:19:12.009Z,8.05
2022-11-21T15:21:46.703Z,10.23
2022-11-21T15:24:19.424Z,9.43
2022-11-21T15:26:47.359Z,10.13
2022-11-21T15:29:21.243Z,9.85
2022-11-21T15:32:07.003Z,8.65
2022-11-21T15:34:48.036Z,9.27
2022-11-21T15:37:19.213Z,7.85
2022-11-21T15:39:49.875Z,9.43
2022-11-21T15:42:36.343Z,7.97
2022-11-21T15:45:21.522Z,11.70
2022-11-21T15:47:50.263Z,9.35
2022-11-21T15:50:18.462Z,13.30
2022-11-21T15:52:48.875Z,10.38
2022-11-21T15:55:20.054Z,12.23
2022-11-21T15:57:48.120Z,9.88
2022-11-21T16:00:17.194Z,11.95
2022-11-21T16:02:45.117Z,9.98
2022-11-21T16:05:13.997Z,11.48
2022-11-21T16:07:41.788Z,11.27
2022-11-21T16:10:19.956Z,8.68
2022-11-21T16:12:50.563Z,12.57
2022-11-21T16:15:18.079Z,9.30
2022-11-21T16:17:47.603Z,8.45
2022-11-21T16:20:15.791Z,7.82
2022-11-21T16:22:47.645Z,11.88
2022-11-21T16:25:17.187Z,8.93
2022-11-21T16:27:45.011Z,10.45
2022-11-21T16:30:13.246Z,14.27
2022-11-21T16:32:40.914Z,10.02
2022-11-21T16:35:09.292Z,9.82
2022-11-21T16:37:36.934Z,12.18
2022-11-21T16:40:05.175Z,10.48
2022-11-21T16:42:34.256Z,8.73
2022-11-21T16:45:01.922Z,10.65
2022-11-21T16:47:29.515Z,9.35
2022-11-21T16:49:57.241Z,8.70
2022-11-21T16:52:25.692Z,11.63
2022-11-21T16:54:53.320Z,10.43
2022-11-21T16:57:20.903Z,9.85
2022-11-21T16:59:49.989Z,10.63
2022-11-21T17:02:17.706Z,10.02
2022-11-21T17:04:45.413Z,11.75
2022-11-21T17:07:13.080Z,11.85
2022-11-21T17:09:40.757Z,10.75
2022-11-21T17:12:09.008Z,11.43
2022-11-21T17:14:36.648Z,9.50
2022-11-21T17:17:05.665Z,9.25
2022-11-21T17:19:33.386Z,9.15
2022-11-21T17:22:01.153Z,11.48
2022-11-21T17:24:29.006Z,13.45
2022-11-21T17:27:00.468Z,12.48
2022-11-21T17:29:28.277Z,12.40
2022-11-21T17:31:56.093Z,9.77
2022-11-21T17:34:29.740Z,9.93
2022-11-21T17:37:00.403Z,10.80
2022-11-21T17:39:29.843Z,10.60
2022-11-21T17:41:59.317Z,12.57
2022-11-21T17:44:27.362Z,10.50
2022-11-21T17:46:55.387Z,12.23
2022-11-21T17:49:23.183Z,11.35
2022-11-21T17:51:56.469Z,10.60
2022-11-21T17:54:24.771Z,14.02
2022-11-21T17:56:56.607Z,11.57
2022-11-21T17:59:24.809Z,13.48
2022-11-21T18:01:52.681Z,14.05
2022-11-21T18:04:24.407Z,14.43
2022-11-21T18:06:53.391Z,13.63
2022-11-21T18:09:20.939Z,14.10
2022-11-21T18:11:48.603Z,15.27
2022-11-21T18:14:16.337Z,15.68
2022-11-21T18:16:50.696Z,15.88
2022-11-21T18:19:20.962Z,14.98
2022-11-21T18:21:48.742Z,15.80
2022-11-21T18:24:17.716Z,15.02
2022-11-21T18:26:47.724Z,18.23
2022-11-21T18:32:06.118Z,19.88
2022-11-21T18:34:33.808Z,24.10
2022-11-21T18:37:01.558Z,21.00
2022-11-21T18:39:30.734Z,20.95
2022-11-21T18:41:58.544Z,22.08
2022-11-21T18:44:26.129Z,24.38
2022-11-21T18:46:53.764Z,25.88
2022-11-21T18:49:21.346Z,25.98
2022-11-21T18:51:49.103Z,26.52
2022-11-21T18:54:16.769Z,22.40
2022-11-21T18:56:46.985Z,23.08
2022-11-21T18:59:15.066Z,25.40
2022-11-21T19:01:43.258Z,21.90
2022-11-21T19:04:11.097Z,23.88
2022-11-21T19:06:39.056Z,26.98
2022-11-21T19:09:08.115Z,24.65
2022-11-21T19:11:35.802Z,25.30
2022-11-21T19:14:04.936Z,26.42
2022-11-21T19:16:34.404Z,30.15
2022-11-21T19:21:53.385Z,34.30
2022-11-21T19:24:20.972Z,31.10
2022-11-21T19:26:50.343Z,35.95
2022-11-21T19:29:20.006Z,31.70
2022-11-21T19:31:47.943Z,32.65
2022-11-21T19:34:16.458Z,32.47
2022-11-21T19:36:44.702Z,30.45
2022-11-21T19:39:12.905Z,26.80
2022-11-21T19:41:41.498Z,27.42
2022-11-21T19:44:09.305Z,32.65
2022-11-21T19:46:39.402Z,39.58
2022-11-21T19:49:07.978Z,29.95
2022-11-21T19:51:37.543Z,32.92
2022-11-21T19:54:06.202Z,31.85
2022-11-21T19:56:34.010Z,25.27
2022-11-21T19:59:01.927Z,24.70
2022-11-21T20:01:31.014Z,25.77
2022-11-21T20:04:01.867Z,25.70
2022-11-21T20:06:32.310Z,25.77
2022-11-21T20:09:02.055Z,23.58
2022-11-21T20:11:32.062Z,25.30
2022-11-21T20:14:00.130Z,20.90
2022-11-21T20:16:29.416Z,23.80
2022-11-21T20:19:01.143Z,19.58
2022-11-21T20:21:29.564Z,19.27
2022-11-21T20:23:57.552Z,17.20
2022-11-21T20:26:26.401Z,18.80
2022-11-21T20:28:54.613Z,20.17
2022-11-21T20:31:24.697Z,19.48
2022-11-21T20:33:54.064Z,17.38
2022-11-21T20:36:24.531Z,18.33
2022-11-21T20:38:53.913Z,20.58
2022-11-21T20:41:23.010Z,19.45
2022-11-21T20:44:44.365Z,15.50
2022-11-21T20:46:41.818Z,18.88
2022-11-21T20:49:09.755Z,19.17
2022-11-21T20:54:28.787Z,14.43
2022-11-21T20:56:56.573Z,22.08
2022-11-21T20:59:24.520Z,18.33
2022-11-21T21:01:52.338Z,16.13
2022-11-21T21:04:20.219Z,16.92
2022-11-21T21:07:09.166Z,17.58
2022-11-21T21:09:37.111Z,15.93
2022-11-21T21:12:05.836Z,19.30
2022-11-21T21:14:33.673Z,15.88
2022-11-21T21:17:01.450Z,17.48
2022-11-21T21:19:29.380Z,14.88
2022-11-21T21:21:57.445Z,15.68
2022-11-21T21:24:27.747Z,20.42
2022-11-21T21:26:55.375Z,16.65
2022-11-21T21:29:23.211Z,18.95
2022-11-21T21:31:52.556Z,19.38
2022-11-21T21:34:21.852Z,16.92
2022-11-21T21:36:49.679Z,19.25
2022-11-21T21:39:17.329Z,18.83
2022-11-21T21:41:47.498Z,19.63
2022-11-21T21:44:16.151Z,19.45
2022-11-21T21:46:44.068Z,20.52
2022-11-21T21:49:12.034Z,17.50
2022-11-21T21:51:48.789Z,20.05
2022-11-21T21:54:18.409Z,18.95
2022-11-21T21:56:48.407Z,18.95
2022-11-21T21:59:18.954Z,19.58
2022-11-21T22:01:50.199Z,23.05
2022-11-21T22:04:17.898Z,19.23
2022-11-21T22:06:45.533Z,23.20
2022-11-21T22:09:15.823Z,26.58
2022-11-21T22:11:49.036Z,22.17
2022-11-21T22:14:19.678Z,20.75
2022-11-21T22:16:47.445Z,20.10
2022-11-21T22:19:26.411Z,21.27
2022-11-21T22:22:00.017Z,22.92
2022-11-21T22:24:28.034Z,23.17
2022-11-21T22:26:57.150Z,22.50
2022-11-21T22:29:25.119Z,18.90
2022-11-21T22:31:53.139Z,21.20
2022-11-21T22:34:23.662Z,21.25
2022-11-21T22:36:51.395Z,23.25
2022-11-21T22:39:20.099Z,22.63
2022-11-21T22:41:47.971Z,24.40
2022-11-21T22:44:17.273Z,21.13
2022-11-21T22:46:45.001Z,20.52
2022-11-21T22:49:12.735Z,22.30
2022-11-21T22:51:40.538Z,21.08
2022-11-21T22:54:08.369Z,21.77
2022-11-21T22:56:36.171Z,19.98
2022-11-21T22:59:03.892Z,20.17
2022-11-21T23:01:33.611Z,21.83
2022-11-21T23:04:01.431Z,19.83
2022-11-21T23:06:29.151Z,23.45
2022-11-21T23:08:58.079Z,23.05
2022-11-21T23:11:27.803Z,20.30
2022-11-21T23:13:57.334Z,21.27
2022-11-21T23:16:25.665Z,24.40
2022-11-21T23:18:56.626Z,20.40
2022-11-21T23:21:24.883Z,21.75
2022-11-21T23:23:52.852Z,22.92
2022-11-21T23:26:20.980Z,21.83
2022-11-21T23:28:48.719Z,21.67
2022-11-21T23:31:16.457Z,21.38
2022-11-21T23:33:44.371Z,21.20
2022-11-21T23:36:13.546Z,20.85
2022-11-21T23:38:41.246Z,17.95
2022-11-21T23:41:09.026Z,18.63
2022-11-21T23:43:36.930Z,21.75
2022-11-21T23:46:04.545Z,19.30
2022-11-21T23:48:32.335Z,20.77
2022-11-21T23:50:59.990Z,20.98
2022-11-21T23:53:29.294Z,19.48
2022-11-21T23:55:56.931Z,20.90
2022-11-21T23:58:24.477Z,19.35
